Time;durP1;ratioP1;P1;durP2;ratioP2;P2;SDS_P1;SDS_P2;PMS_P1;PMS_P2;Temp;Humidity;BMP_temperature;BMP_pressure;BME280_temperature;BME280_humidity;BME280_pressure;Samples;Min_cycle;Max_cycle;Signal;HPM_P1;HPM_P2
2022/05/28 00:01:05;;;;;;;1.27;0.20;;;19.00;58.40;;;;;;5024954;28;20041;-75
2022/05/28 00:03:32;;;;;;;0.38;0.00;;;18.90;58.60;;;;;;5024164;28;20065;-74
2022/05/28 00:06:00;;;;;;;1.10;0.00;;;18.90;58.80;;;;;;5026110;28;20041;-74
2022/05/28 00:08:28;;;;;;;1.25;0.05;;;19.00;58.90;;;;;;5026265;28;20048;-74
2022/05/28 00:10:57;;;;;;;0.80;0.10;;;18.90;58.00;;;;;;5027170;28;20068;-75
2022/05/28 00:13:25;;;;;;;1.77;0.10;;;18.90;57.70;;;;;;5029177;28;20042;-74
2022/05/28 00:15:52;;;;;;;0.63;0.10;;;18.80;57.00;;;;;;5023907;28;20539;-74
2022/05/28 00:18:19;;;;;;;0.57;0.10;;;18.90;57.70;;;;;;5025466;28;20125;-74
2022/05/28 00:20:46;;;;;;;0.60;0.05;;;18.90;56.90;;;;;;5010080;28;20124;-74
2022/05/28 00:23:13;;;;;;;0.13;0.00;;;19.00;58.00;;;;;;5011155;28;20044;-74
2022/05/28 00:25:41;;;;;;;0.28;0.10;;;18.90;57.10;;;;;;5026333;28;20037;-74
2022/05/28 00:28:08;;;;;;;0.43;0.10;;;19.00;57.10;;;;;;5040426;28;20147;-74
2022/05/28 00:30:36;;;;;;;0.73;0.00;;;19.10;57.50;;;;;;5025784;28;20124;-74
2022/05/28 00:33:03;;;;;;;0.50;0.10;;;18.90;56.50;;;;;;5026694;28;20452;-74
2022/05/28 00:35:30;;;;;;;0.20;0.10;;;18.90;56.90;;;;;;5026567;28;20050;-74
2022/05/28 00:37:57;;;;;;;0.50;0.10;;;18.90;57.30;;;;;;5022057;28;20050;-74
2022/05/28 00:40:26;;;;;;;1.25;0.00;;;18.90;57.20;;;;;;5024951;28;20044;-74
2022/05/28 00:42:58;;;;;;;0.38;0.10;;;19.00;58.80;;;;;;5025163;28;20042;-74
2022/05/28 00:45:26;;;;;;;0.20;0.08;;;19.00;58.50;;;;;;5023484;28;20120;-74
2022/05/28 00:47:56;;;;;;;1.90;0.10;;;18.90;58.80;;;;;;5025160;28;20145;-74
2022/05/28 00:50:24;;;;;;;0.95;0.10;;;19.00;59.20;;;;;;5026836;28;20046;-74
2022/05/28 00:52:52;;;;;;;0.70;0.10;;;18.90;57.90;;;;;;5024587;28;20041;-74
2022/05/28 00:55:20;;;;;;;0.65;0.20;;;18.80;58.40;;;;;;5026038;28;20408;-74
2022/05/28 00:57:47;;;;;;;0.45;0.10;;;18.80;58.70;;;;;;5025303;28;20423;-74
2022/05/28 01:00:22;;;;;;;0.52;0.10;;;18.90;58.60;;;;;;5024730;28;20069;-74
2022/05/28 01:03:13;;;;;;;0.20;0.00;;;18.90;60.30;;;;;;5041443;28;20044;-74
2022/05/28 01:06:16;;;;;;;0.57;0.40;;;18.90;61.00;;;;;;5025060;28;20052;-74
2022/05/28 01:08:47;;;;;;;1.35;0.10;;;18.80;60.70;;;;;;5025040;28;20040;-74
2022/05/28 01:11:20;;;;;;;0.20;0.10;;;18.80;60.50;;;;;;5024980;28;20059;-74
2022/05/28 01:14:02;;;;;;;0.57;0.10;;;18.70;60.20;;;;;;5027325;28;20411;-74
2022/05/28 01:16:29;;;;;;;0.35;0.10;;;18.50;60.00;;;;;;5027348;28;20041;-74
2022/05/28 01:19:24;;;;;;;1.27;0.13;;;18.40;59.90;;;;;;5027863;28;20073;-74
2022/05/28 01:22:00;;;;;;;6.47;0.10;;;18.40;60.20;;;;;;5015365;28;20049;-74
2022/05/28 01:24:53;;;;;;;0.43;0.10;;;18.40;60.80;;;;;;5023893;28;20048;-75
2022/05/28 01:27:36;;;;;;;1.38;0.10;;;18.40;60.10;;;;;;5024141;28;20047;-74
2022/05/28 01:30:07;;;;;;;1.30;0.10;;;18.30;60.80;;;;;;5025459;28;20115;-74
2022/05/28 01:32:36;;;;;;;0.55;0.10;;;18.50;60.70;;;;;;5025143;28;20045;-74
2022/05/28 01:35:07;;;;;;;0.70;0.10;;;18.50;60.70;;;;;;5010303;28;20048;-74
2022/05/28 01:37:36;;;;;;;1.27;0.15;;;18.20;60.80;;;;;;5023963;28;20034;-74
2022/05/28 01:40:07;;;;;;;1.20;0.10;;;18.20;60.70;;;;;;5024158;28;20072;-74
2022/05/28 01:42:38;;;;;;;1.60;0.20;;;18.20;61.40;;;;;;5038452;28;20576;-74
2022/05/28 01:45:07;;;;;;;0.20;0.10;;;18.10;61.80;;;;;;5023719;28;20543;-74
2022/05/28 01:47:35;;;;;;;0.28;0.10;;;18.20;61.90;;;;;;5039814;28;20037;-74
2022/05/28 01:50:07;;;;;;;0.43;0.10;;;18.10;61.60;;;;;;5023377;28;20499;-74
2022/05/28 01:52:35;;;;;;;0.55;0.20;;;18.10;61.70;;;;;;5026536;28;20042;-74
2022/05/28 01:55:03;;;;;;;0.45;0.10;;;18.00;62.20;;;;;;5023849;28;20052;-74
2022/05/28 01:57:30;;;;;;;0.80;0.20;;;17.90;62.70;;;;;;5024673;28;20052;-74
2022/05/28 01:59:57;;;;;;;0.65;0.10;;;17.90;62.60;;;;;;5025691;28;20040;-74
2022/05/28 02:02:24;;;;;;;0.50;0.10;;;17.80;62.60;;;;;;5025778;28;20045;-74
2022/05/28 02:04:51;;;;;;;1.55;0.32;;;17.80;62.70;;;;;;5026399;28;20033;-74
2022/05/28 02:07:19;;;;;;;0.93;0.20;;;17.70;63.00;;;;;;5009075;28;20049;-74
2022/05/28 02:09:53;;;;;;;1.63;0.20;;;17.70;64.00;;;;;;5024232;28;20068;-74
2022/05/28 02:12:32;;;;;;;0.40;0.10;;;17.80;63.80;;;;;;5056219;28;20133;-75
2022/05/28 02:15:18;;;;;;;0.45;0.10;;;17.90;63.00;;;;;;5025678;28;20071;-74
2022/05/28 02:18:06;;;;;;;1.92;0.10;;;17.80;62.90;;;;;;5025520;28;21047;-74
2022/05/28 02:20:40;;;;;;;0.50;0.10;;;17.80;63.20;;;;;;5025944;28;20407;-74
2022/05/28 02:23:21;;;;;;;0.52;0.20;;;17.80;63.80;;;;;;5020279;28;20038;-74
2022/05/28 02:26:08;;;;;;;0.55;0.10;;;17.60;64.30;;;;;;5040601;28;20045;-74
2022/05/28 02:28:36;;;;;;;0.40;0.17;;;17.60;64.10;;;;;;5055970;28;20091;-74
2022/05/28 02:31:27;;;;;;;0.30;0.10;;;17.60;64.60;;;;;;5022446;28;20504;-74
2022/05/28 02:33:55;;;;;;;0.30;0.10;;;17.70;64.70;;;;;;5025657;28;20046;-74
2022/05/28 02:36:23;;;;;;;1.65;0.10;;;17.60;64.80;;;;;;5023242;28;20042;-74
2022/05/28 02:38:51;;;;;;;2.10;0.10;;;17.80;65.30;;;;;;5023459;28;20046;-74
2022/05/28 02:41:20;;;;;;;0.55;0.10;;;17.90;65.30;;;;;;5004637;28;20038;-74
2022/05/28 02:43:47;;;;;;;1.90;0.20;;;17.90;66.10;;;;;;5021754;28;20048;-74
2022/05/28 02:46:14;;;;;;;0.50;0.20;;;17.80;66.30;;;;;;5024675;28;20381;-73
2022/05/28 02:48:42;;;;;;;2.45;0.20;;;17.60;66.30;;;;;;5023261;28;20518;-74
2022/05/28 02:51:12;;;;;;;1.15;0.20;;;17.60;67.20;;;;;;5025120;28;20064;-74
2022/05/28 02:53:39;;;;;;;0.77;0.13;;;17.50;67.40;;;;;;5025540;28;20050;-74
2022/05/28 02:56:08;;;;;;;0.52;0.20;;;17.50;67.80;;;;;;5006877;28;20037;-74
2022/05/28 02:58:35;;;;;;;1.05;0.15;;;17.50;67.90;;;;;;5025869;28;20037;-74
2022/05/28 03:01:03;;;;;;;0.60;0.20;;;17.60;67.80;;;;;;5021998;28;20112;-74
2022/05/28 03:03:31;;;;;;;1.00;0.20;;;17.50;68.20;;;;;;5022924;28;20034;-73
2022/05/28 03:05:58;;;;;;;1.73;0.17;;;17.30;68.20;;;;;;5038629;28;20500;-73
2022/05/28 03:08:25;;;;;;;0.40;0.15;;;17.10;69.60;;;;;;5021820;28;20041;-73
2022/05/28 03:10:52;;;;;;;1.85;0.10;;;17.20;69.20;;;;;;5038266;28;20536;-74
2022/05/28 03:13:19;;;;;;;1.17;0.20;;;17.40;69.10;;;;;;5018089;28;20045;-74
2022/05/28 03:15:46;;;;;;;0.63;0.20;;;17.40;69.10;;;;;;5021440;28;20056;-74
2022/05/28 03:18:13;;;;;;;1.15;0.20;;;17.50;68.70;;;;;;5034264;28;20049;-74
2022/05/28 03:20:40;;;;;;;0.50;0.20;;;17.20;68.80;;;;;;5022496;28;20128;-74
2022/05/28 03:23:08;;;;;;;0.98;0.20;;;17.20;69.40;;;;;;5025967;28;20535;-74
2022/05/28 03:25:35;;;;;;;0.98;0.20;;;17.30;69.40;;;;;;5026645;28;20041;-74
2022/05/28 03:28:02;;;;;;;0.50;0.10;;;17.30;69.30;;;;;;5026982;28;20049;-74
2022/05/28 03:30:29;;;;;;;0.65;0.22;;;17.30;69.30;;;;;;5027385;28;20513;-74
2022/05/28 03:32:56;;;;;;;1.00;0.20;;;17.30;69.40;;;;;;5042651;28;20508;-73
2022/05/28 03:35:23;;;;;;;0.55;0.20;;;17.30;68.90;;;;;;5027754;28;20123;-74
2022/05/28 03:37:50;;;;;;;0.38;0.10;;;17.20;70.70;;;;;;5023014;28;20041;-74
2022/05/28 03:40:18;;;;;;;1.33;0.20;;;17.30;69.90;;;;;;5023462;28;20051;-74
2022/05/28 03:42:45;;;;;;;0.63;0.20;;;17.20;70.30;;;;;;5024929;28;20615;-74
2022/05/28 03:45:12;;;;;;;0.25;0.10;;;17.00;70.80;;;;;;5031982;28;20034;-73
2022/05/28 03:47:39;;;;;;;3.03;0.20;;;17.00;71.00;;;;;;5023672;28;20065;-74
2022/05/28 03:50:07;;;;;;;1.02;0.10;;;17.10;70.70;;;;;;5023084;28;20575;-74
2022/05/28 03:52:34;;;;;;;1.77;0.20;;;17.00;70.60;;;;;;5027815;28;20049;-74
2022/05/28 03:55:01;;;;;;;1.23;0.20;;;17.10;70.70;;;;;;5022584;28;20377;-74
2022/05/28 03:57:32;;;;;;;1.02;0.10;;;17.20;70.80;;;;;;5027056;28;20045;-74
2022/05/28 03:59:59;;;;;;;0.80;0.40;;;17.30;70.70;;;;;;5025391;28;20041;-74
2022/05/28 04:02:27;;;;;;;0.52;0.10;;;17.40;70.20;;;;;;5025827;28;20037;-74
2022/05/28 04:04:54;;;;;;;1.20;0.20;;;17.30;70.80;;;;;;5024137;28;20061;-73
2022/05/28 04:07:22;;;;;;;1.08;0.20;;;17.40;70.30;;;;;;5023415;28;20057;-73
2022/05/28 04:09:49;;;;;;;1.35;0.20;;;17.20;69.80;;;;;;5056866;28;20140;-73
2022/05/28 04:12:16;;;;;;;0.45;0.20;;;17.00;71.60;;;;;;5025608;28;20138;-73
2022/05/28 04:14:44;;;;;;;1.20;0.20;;;16.90;71.30;;;;;;5020507;28;24257;-74
2022/05/28 04:17:11;;;;;;;0.73;0.20;;;16.80;72.00;;;;;;5023304;28;20527;-73
2022/05/28 04:19:39;;;;;;;0.98;0.15;;;16.90;71.70;;;;;;5025897;28;20120;-73
2022/05/28 04:22:07;;;;;;;0.77;0.30;;;17.00;71.60;;;;;;5024727;28;21133;-74
2022/05/28 04:24:34;;;;;;;2.25;0.20;;;16.90;71.70;;;;;;5022374;28;20121;-73
2022/05/28 04:27:01;;;;;;;0.45;0.20;;;17.10;71.70;;;;;;5023657;28;20053;-74
2022/05/28 04:29:28;;;;;;;1.67;0.15;;;17.00;71.40;;;;;;5007932;28;20400;-73
2022/05/28 04:31:56;;;;;;;1.52;0.60;;;17.00;71.70;;;;;;5026881;28;20056;-73
2022/05/28 04:34:23;;;;;;;0.82;0.20;;;17.00;72.00;;;;;;5024593;28;20041;-73
2022/05/28 04:36:50;;;;;;;2.67;0.28;;;16.80;72.30;;;;;;5024187;28;20076;-73
2022/05/28 04:39:17;;;;;;;0.88;0.30;;;16.90;72.20;;;;;;5025425;28;20041;-74
2022/05/28 04:41:44;;;;;;;1.13;0.28;;;16.90;72.50;;;;;;5025902;28;20037;-73
2022/05/28 04:44:11;;;;;;;1.42;0.20;;;16.90;72.00;;;;;;5020305;28;20144;-74
2022/05/28 04:46:38;;;;;;;1.58;0.45;;;16.60;72.70;;;;;;5022787;28;20124;-74
2022/05/28 04:49:06;;;;;;;0.60;0.20;;;16.80;73.30;;;;;;5007430;28;20500;-74
2022/05/28 04:51:33;;;;;;;1.60;0.15;;;17.10;72.90;;;;;;5022384;28;20054;-74
2022/05/28 04:54:00;;;;;;;0.75;0.32;;;17.10;72.20;;;;;;5009047;28;20197;-74
2022/05/28 04:56:27;;;;;;;2.13;0.40;;;17.20;72.00;;;;;;5025572;28;20048;-74
2022/05/28 04:58:55;;;;;;;1.85;0.35;;;17.30;71.60;;;;;;5023349;28;20088;-74
2022/05/28 05:01:24;;;;;;;1.33;0.30;;;17.30;72.40;;;;;;4993095;28;20046;-74
2022/05/28 05:03:51;;;;;;;1.88;0.20;;;17.40;73.00;;;;;;5009002;28;20053;-74
2022/05/28 05:06:19;;;;;;;1.77;0.30;;;17.40;72.30;;;;;;4991294;28;20061;-74
2022/05/28 05:08:46;;;;;;;0.40;0.20;;;17.20;71.60;;;;;;5005117;28;20046;-74
2022/05/28 05:11:14;;;;;;;3.53;0.30;;;17.20;72.00;;;;;;5008326;28;20069;-74
2022/05/28 05:13:41;;;;;;;0.47;0.13;;;17.30;72.30;;;;;;5008077;28;20053;-74
2022/05/28 05:16:10;;;;;;;0.85;0.28;;;17.20;72.20;;;;;;5003880;28;20050;-74
2022/05/28 05:18:38;;;;;;;0.68;0.20;;;17.10;72.30;;;;;;5004264;28;20045;-74
2022/05/28 05:21:05;;;;;;;2.05;0.30;;;17.00;72.20;;;;;;5005595;28;20045;-73
2022/05/28 05:23:33;;;;;;;1.92;0.20;;;17.00;73.10;;;;;;5006220;28;20041;-73
2022/05/28 05:26:00;;;;;;;0.98;0.20;;;16.90;73.20;;;;;;5009415;28;20057;-74
2022/05/28 05:28:27;;;;;;;2.83;0.30;;;17.00;73.20;;;;;;5008396;28;20049;-74
2022/05/28 05:30:54;;;;;;;0.68;0.28;;;17.00;72.90;;;;;;5009225;28;20053;-74
2022/05/28 05:33:21;;;;;;;1.80;0.20;;;17.00;72.80;;;;;;5010354;28;21084;-73
2022/05/28 05:35:48;;;;;;;2.35;0.22;;;17.10;73.10;;;;;;5004364;28;20049;-74
2022/05/28 05:38:15;;;;;;;1.00;0.22;;;17.00;72.30;;;;;;4999303;28;20136;-74
2022/05/28 05:40:42;;;;;;;2.25;0.50;;;17.00;72.10;;;;;;5018977;28;20092;-73
2022/05/28 05:43:09;;;;;;;1.27;0.22;;;17.00;71.70;;;;;;5001837;28;20049;-73
2022/05/28 05:45:38;;;;;;;2.08;0.30;;;16.90;72.20;;;;;;5003873;28;20042;-74
2022/05/28 05:48:05;;;;;;;3.38;0.30;;;16.90;72.40;;;;;;5003517;28;20561;-74
2022/05/28 05:50:33;;;;;;;1.25;0.35;;;16.90;71.50;;;;;;5004820;28;20056;-74
2022/05/28 05:53:00;;;;;;;2.60;0.35;;;16.90;71.50;;;;;;5024747;28;20049;-74
2022/05/28 05:55:27;;;;;;;1.58;0.30;;;17.10;72.10;;;;;;5007928;28;20587;-74
2022/05/28 05:57:54;;;;;;;1.63;0.30;;;17.20;71.70;;;;;;5006770;28;20708;-74
2022/05/28 06:00:21;;;;;;;3.45;0.40;;;17.20;70.60;;;;;;4997309;28;20053;-74
2022/05/28 06:02:48;;;;;;;2.25;0.30;;;17.10;70.80;;;;;;5000376;28;20049;-73
2022/05/28 06:05:15;;;;;;;2.15;0.30;;;17.10;70.80;;;;;;5006075;28;20130;-74
2022/05/28 06:07:42;;;;;;;1.10;0.30;;;17.10;70.80;;;;;;5002429;28;20049;-74
2022/05/28 06:10:11;;;;;;;1.27;0.38;;;17.20;70.20;;;;;;5010288;28;22362;-74
2022/05/28 06:12:39;;;;;;;0.73;0.20;;;17.30;70.10;;;;;;5027121;28;20132;-74
2022/05/28 06:15:07;;;;;;;1.70;0.30;;;17.40;70.90;;;;;;5009534;28;20045;-74
2022/05/28 06:17:35;;;;;;;0.75;0.38;;;17.50;69.00;;;;;;5010349;28;20052;-74
2022/05/28 06:20:08;;;;;;;2.30;0.25;;;17.60;69.00;;;;;;5005008;28;20303;-74
2022/05/28 06:22:36;;;;;;;0.93;0.30;;;17.70;68.50;;;;;;5006753;28;20037;-74
2022/05/28 06:25:04;;;;;;;2.15;0.45;;;17.70;68.30;;;;;;5026198;28;20053;-74
2022/05/28 06:27:34;;;;;;;0.90;0.20;;;17.80;68.50;;;;;;5024932;28;20042;-74
2022/05/28 06:30:02;;;;;;;0.73;0.20;;;17.80;68.50;;;;;;5013110;28;20046;-74
2022/05/28 06:32:29;;;;;;;1.50;0.30;;;17.90;68.70;;;;;;5010042;28;20056;-74
2022/05/28 06:34:56;;;;;;;1.63;0.35;;;17.90;67.90;;;;;;5010077;28;20503;-74
2022/05/28 06:37:24;;;;;;;2.55;0.30;;;17.80;68.10;;;;;;5008537;28;20045;-74
2022/05/28 06:39:51;;;;;;;1.13;0.20;;;17.90;68.00;;;;;;5017032;28;20152;-74
2022/05/28 06:42:18;;;;;;;2.15;0.30;;;17.70;67.30;;;;;;5004973;28;20042;-74
2022/05/28 06:44:46;;;;;;;3.05;0.30;;;17.80;67.50;;;;;;5010947;28;20056;-74
2022/05/28 06:47:13;;;;;;;0.82;0.30;;;18.00;67.30;;;;;;4990211;28;20053;-74
2022/05/28 06:49:40;;;;;;;0.85;0.43;;;18.10;66.20;;;;;;5008748;28;20037;-74
2022/05/28 06:52:07;;;;;;;1.38;0.30;;;18.20;66.50;;;;;;5025673;28;20191;-74
2022/05/28 06:54:34;;;;;;;1.00;0.20;;;18.00;64.10;;;;;;5027685;28;20052;-74
2022/05/28 06:57:01;;;;;;;1.80;0.20;;;18.20;64.60;;;;;;5014933;28;20049;-74
2022/05/28 06:59:28;;;;;;;2.40;0.28;;;18.20;64.30;;;;;;5009332;28;23830;-74
2022/05/28 07:01:56;;;;;;;2.20;0.52;;;18.10;61.10;;;;;;5011979;28;20049;-75
2022/05/28 07:04:23;;;;;;;1.60;0.40;;;18.10;60.40;;;;;;5024488;28;20180;-74
2022/05/28 07:06:52;;;;;;;2.72;0.28;;;18.10;60.50;;;;;;5028026;28;20083;-74
2022/05/28 07:09:19;;;;;;;2.58;0.68;;;18.10;61.10;;;;;;5023524;28;20077;-74
2022/05/28 07:11:47;;;;;;;1.60;0.30;;;18.20;59.50;;;;;;5023794;28;20045;-74
2022/05/28 07:14:14;;;;;;;2.40;0.40;;;18.20;59.10;;;;;;5009188;28;20052;-74
2022/05/28 07:16:41;;;;;;;2.38;0.40;;;18.00;55.60;;;;;;5008458;28;20049;-74
2022/05/28 07:19:10;;;;;;;1.92;0.20;;;18.00;56.10;;;;;;5006206;28;20884;-74
2022/05/28 07:21:37;;;;;;;3.05;0.95;;;17.90;56.30;;;;;;5014974;28;20418;-74
2022/05/28 07:24:05;;;;;;;3.90;0.40;;;18.00;57.20;;;;;;5026996;28;20046;-74
2022/05/28 07:26:32;;;;;;;3.60;0.30;;;18.20;57.30;;;;;;5029200;28;20056;-74
2022/05/28 07:28:59;;;;;;;1.95;0.30;;;18.40;57.20;;;;;;5027021;28;20500;-74
2022/05/28 07:31:26;;;;;;;5.60;0.40;;;18.40;59.00;;;;;;5012882;28;20076;-75
2022/05/28 07:33:53;;;;;;;2.10;0.20;;;18.50;57.30;;;;;;4999252;28;20045;-74
2022/05/28 07:36:23;;;;;;;3.28;0.35;;;18.40;56.40;;;;;;5013364;28;22540;-74
2022/05/28 07:38:51;;;;;;;2.88;0.57;;;18.30;55.70;;;;;;5011260;28;20045;-74
2022/05/28 07:41:24;;;;;;;4.43;1.13;;;18.30;57.10;;;;;;5028714;28;21895;-74
2022/05/28 07:43:53;;;;;;;3.30;0.68;;;18.20;55.00;;;;;;5016384;28;20133;-74
2022/05/28 07:46:26;;;;;;;4.07;0.60;;;18.20;56.60;;;;;;5011561;28;20053;-74
2022/05/28 07:48:55;;;;;;;4.82;0.60;;;18.20;55.90;;;;;;5008202;28;20046;-74
2022/05/28 07:51:22;;;;;;;3.63;0.40;;;18.20;55.80;;;;;;5011314;28;20038;-74
2022/05/28 07:53:50;;;;;;;4.45;0.95;;;18.40;56.00;;;;;;5009680;28;20556;-74
2022/05/28 07:56:17;;;;;;;4.15;0.60;;;18.50;56.70;;;;;;5011789;28;20049;-74
2022/05/28 07:58:45;;;;;;;2.83;0.63;;;18.60;56.00;;;;;;5013661;28;20781;-74
2022/05/28 08:01:24;;;;;;;1.13;0.50;;;18.60;57.10;;;;;;5012383;28;20056;-74
2022/05/28 08:03:52;;;;;;;1.75;0.80;;;18.70;56.70;;;;;;5025202;28;20493;-74
2022/05/28 08:06:20;;;;;;;5.10;0.68;;;18.70;56.50;;;;;;5012872;28;20046;-74
2022/05/28 08:08:51;;;;;;;4.43;0.43;;;18.70;55.40;;;;;;5011352;28;20037;-74
2022/05/28 08:11:21;;;;;;;2.15;0.38;;;18.70;55.80;;;;;;5010291;28;20060;-74
2022/05/28 08:13:50;;;;;;;2.92;0.40;;;18.90;56.30;;;;;;5016164;28;20053;-75
2022/05/28 08:16:17;;;;;;;1.73;0.30;;;18.90;56.50;;;;;;5011177;28;21329;-74
2022/05/28 08:18:45;;;;;;;2.40;0.47;;;18.90;56.50;;;;;;5003929;28;20049;-74
2022/05/28 08:23:59;;;;;;;1.73;0.28;;;19.30;56.40;;;;;;5014029;28;20046;-75
2022/05/28 08:26:26;;;;;;;6.25;0.60;;;19.20;54.80;;;;;;5008112;28;20041;-74
2022/05/28 08:28:55;;;;;;;2.53;0.30;;;19.20;56.10;;;;;;5035014;28;20053;-74
2022/05/28 08:31:24;;;;;;;4.25;0.35;;;19.10;55.10;;;;;;5025300;28;20053;-73
2022/05/28 08:33:52;;;;;;;7.03;0.77;;;19.30;56.50;;;;;;5009292;28;20060;-74
2022/05/28 08:36:19;;;;;;;2.40;0.35;;;19.50;58.40;;;;;;5013803;28;20428;-74
2022/05/28 08:38:46;;;;;;;2.25;0.65;;;19.60;55.80;;;;;;5031713;28;20060;-74
2022/05/28 08:41:19;;;;;;;0.90;0.20;;;19.50;54.40;;;;;;5023777;28;20984;-75
2022/05/28 08:44:22;;;;;;;2.72;0.30;;;19.60;55.20;;;;;;5012048;28;20046;-73
2022/05/28 08:46:56;;;;;;;1.65;0.57;;;19.70;54.70;;;;;;5003210;28;20073;-74
2022/05/28 08:49:27;;;;;;;0.88;0.20;;;19.50;54.40;;;;;;5006264;28;20670;-74
2022/05/28 08:52:16;;;;;;;4.57;0.40;;;19.60;55.00;;;;;;5019741;28;20041;-74
2022/05/28 08:54:56;;;;;;;2.70;0.30;;;19.60;54.20;;;;;;5005168;28;20053;-74
2022/05/28 08:57:57;;;;;;;4.00;0.90;;;19.30;53.90;;;;;;5009796;28;20054;-74
2022/05/28 09:00:41;;;;;;;2.28;0.40;;;19.30;53.80;;;;;;5000867;28;20057;-75
2022/05/28 09:03:15;;;;;;;1.83;0.25;;;19.30;54.10;;;;;;4993815;28;20051;-74
2022/05/28 09:05:57;;;;;;;3.05;0.50;;;19.20;53.60;;;;;;5010866;28;20046;-75
2022/05/28 09:08:29;;;;;;;3.00;0.40;;;19.50;54.20;;;;;;5008665;28;20045;-74
2022/05/28 09:11:01;;;;;;;2.03;0.50;;;19.70;53.80;;;;;;4998713;28;20104;-74
2022/05/28 09:13:32;;;;;;;1.85;0.30;;;19.80;55.20;;;;;;5010913;28;20050;-75
2022/05/28 09:16:02;;;;;;;2.95;0.50;;;19.90;56.40;;;;;;4996443;28;20080;-74
2022/05/28 09:18:36;;;;;;;3.70;0.50;;;19.90;57.60;;;;;;4991387;28;20065;-74
2022/05/28 09:21:05;;;;;;;2.03;0.50;;;20.00;57.40;;;;;;5013034;28;20127;-74
2022/05/28 09:23:46;;;;;;;1.95;0.20;;;20.00;56.10;;;;;;5006238;28;20831;-74
2022/05/28 09:26:19;;;;;;;1.50;0.30;;;19.90;56.30;;;;;;5003250;28;22555;-75
2022/05/28 09:29:43;;;;;;;2.05;0.60;;;19.80;58.60;;;;;;5000266;28;20064;-74
2022/05/28 09:32:33;;;;;;;4.68;0.32;;;19.80;58.20;;;;;;4947389;28;20053;-74
2022/05/28 09:35:13;;;;;;;2.22;0.95;;;19.70;57.60;;;;;;4980519;28;20499;-75
2022/05/28 09:37:56;;;;;;;2.65;0.88;;;19.80;57.90;;;;;;5006552;28;22437;-73
2022/05/28 09:40:36;;;;;;;3.28;0.40;;;19.80;58.40;;;;;;4999861;28;20183;-74
2022/05/28 09:43:22;;;;;;;3.70;0.50;;;19.70;58.70;;;;;;5009201;28;20118;-74
2022/05/28 09:46:15;;;;;;;2.88;0.40;;;19.80;59.80;;;;;;5013290;28;20512;-74
2022/05/28 09:48:46;;;;;;;3.60;0.40;;;19.90;59.70;;;;;;4979565;28;20052;-74
2022/05/28 09:51:23;;;;;;;3.65;0.60;;;19.70;59.40;;;;;;4998652;28;20100;-74
2022/05/28 09:54:17;;;;;;;1.20;0.52;;;19.60;58.50;;;;;;5008718;28;20053;-74
2022/05/28 09:56:54;;;;;;;1.55;0.40;;;19.70;58.60;;;;;;5008768;28;21266;-74
2022/05/28 09:59:29;;;;;;;2.33;0.55;;;19.50;58.00;;;;;;5004763;28;20058;-74
2022/05/28 10:02:01;;;;;;;3.50;0.50;;;19.50;57.60;;;;;;5007402;28;20045;-74
2022/05/28 10:04:29;;;;;;;;;;;19.60;57.90;;;;;;5005249;28;21059;-73
2022/05/28 10:07:04;;;;;;;3.22;0.68;;;19.50;57.30;;;;;;5015955;28;20016;-74
2022/05/28 10:09:34;;;;;;;3.45;0.80;;;19.10;58.30;;;;;;4998374;28;20053;-74
2022/05/28 10:12:22;;;;;;;1.92;0.40;;;19.10;59.20;;;;;;4996452;28;20046;-74
2022/05/28 10:15:09;;;;;;;3.95;0.43;;;19.20;58.90;;;;;;5003032;28;20169;-75
2022/05/28 10:17:36;;;;;;;2.65;0.50;;;19.30;61.20;;;;;;4998535;28;20049;-73
2022/05/28 10:20:14;;;;;;;6.95;1.42;;;19.30;61.70;;;;;;5003573;28;20398;-74
2022/05/28 10:22:42;;;;;;;3.05;0.90;;;19.50;62.30;;;;;;4995314;28;20072;-73
2022/05/28 10:25:34;;;;;;;2.50;0.40;;;19.60;62.10;;;;;;4993044;28;20046;-73
2022/05/28 10:28:02;;;;;;;2.88;0.60;;;19.50;61.60;;;;;;4997976;28;20270;-74
2022/05/28 10:30:43;;;;;;;1.58;0.40;;;19.50;62.30;;;;;;4981874;28;20219;-75
2022/05/28 10:33:21;;;;;;;1.67;0.30;;;19.60;62.40;;;;;;4992292;28;20076;-75
2022/05/28 10:35:48;;;;;;;2.60;0.60;;;19.70;63.50;;;;;;5000913;28;20057;-74
2022/05/28 10:38:24;;;;;;;1.75;0.47;;;19.70;63.70;;;;;;4997722;28;20052;-74
2022/05/28 10:41:12;;;;;;;4.82;1.00;;;19.80;63.10;;;;;;4997682;28;20052;-74
2022/05/28 10:43:40;;;;;;;3.83;0.50;;;20.00;63.50;;;;;;4993493;28;20050;-74
2022/05/28 10:46:11;;;;;;;3.25;0.40;;;20.00;61.50;;;;;;4981204;28;20052;-74
2022/05/28 10:48:44;;;;;;;2.30;0.45;;;20.00;62.60;;;;;;4998201;28;20046;-74
2022/05/28 10:51:18;;;;;;;2.58;0.70;;;20.20;62.40;;;;;;4979346;28;20072;-74
2022/05/28 10:54:18;;;;;;;2.28;0.45;;;20.20;62.00;;;;;;5011519;28;20057;-73
2022/05/28 10:57:01;;;;;;;2.45;1.00;;;20.10;62.00;;;;;;4990588;28;20049;-74
2022/05/28 11:00:01;;;;;;;3.17;0.55;;;19.80;59.80;;;;;;4977213;28;20057;-74
2022/05/28 11:02:44;;;;;;;3.00;0.73;;;19.90;61.30;;;;;;4991676;28;22491;-74
2022/05/28 11:05:30;;;;;;;2.13;0.40;;;20.10;61.30;;;;;;4992459;28;22508;-74
2022/05/28 11:08:35;;;;;;;6.55;0.82;;;20.00;61.40;;;;;;4992418;28;20053;-73
2022/05/28 11:11:38;;;;;;;1.83;1.05;;;19.90;61.50;;;;;;4995478;28;20068;-74
2022/05/28 11:14:27;;;;;;;3.90;0.60;;;19.70;61.40;;;;;;5012990;28;20064;-74
2022/05/28 11:17:06;;;;;;;4.80;1.00;;;19.70;61.10;;;;;;4991236;28;20064;-74
2022/05/28 11:19:33;;;;;;;1.20;0.50;;;19.70;61.80;;;;;;4993854;28;20183;-75
2022/05/28 11:22:03;;;;;;;3.50;0.60;;;19.70;62.20;;;;;;4993427;28;21765;-74
2022/05/28 11:24:39;;;;;;;1.63;0.50;;;19.60;62.50;;;;;;5011098;28;20041;-74
2022/05/28 11:27:09;;;;;;;5.10;0.77;;;19.70;62.10;;;;;;5000031;28;20103;-74
2022/05/28 11:30:16;;;;;;;4.40;1.20;;;19.80;62.90;;;;;;5000378;28;20049;-74
2022/05/28 11:32:55;;;;;;;3.53;0.82;;;19.90;62.10;;;;;;4979956;28;20049;-74
2022/05/28 11:35:31;;;;;;;2.67;0.70;;;20.00;63.20;;;;;;4994613;28;20060;-74
2022/05/28 11:38:12;;;;;;;3.33;0.55;;;20.20;63.50;;;;;;5001910;28;20054;-74
2022/05/28 11:40:56;;;;;;;1.40;0.50;;;20.30;62.40;;;;;;4993343;28;22783;-74
2022/05/28 11:43:30;;;;;;;3.65;0.70;;;20.20;62.70;;;;;;5018981;28;20048;-77
2022/05/28 11:46:13;;;;;;;4.45;0.80;;;20.30;63.50;;;;;;5022667;28;20053;-74
2022/05/28 11:52:17;;;;;;;2.08;0.75;;;20.40;62.70;;;;;;5023754;28;20139;-74
2022/05/28 11:54:50;;;;;;;1.50;0.65;;;20.50;63.30;;;;;;4997040;28;20060;-74
2022/05/28 11:57:34;;;;;;;5.05;0.77;;;20.50;63.10;;;;;;4995151;28;20397;-74
2022/05/28 12:00:07;;;;;;;2.15;0.77;;;20.40;62.10;;;;;;4996939;28;20050;-74
2022/05/28 12:02:47;;;;;;;4.72;0.77;;;20.50;64.40;;;;;;4996046;28;20057;-73
2022/05/28 12:05:21;;;;;;;3.70;0.80;;;20.50;64.30;;;;;;4997085;28;20061;-74
2022/05/28 12:07:59;;;;;;;4.35;0.75;;;20.70;63.80;;;;;;4989732;28;20072;-73
2022/05/28 12:10:51;;;;;;;3.63;0.60;;;20.80;64.60;;;;;;4999412;28;20058;-73
2022/05/28 12:13:32;;;;;;;3.30;0.70;;;20.90;63.40;;;;;;4995906;28;22518;-73
2022/05/28 12:16:13;;;;;;;2.78;1.20;;;20.80;63.10;;;;;;4997742;28;20052;-74
2022/05/28 12:18:42;;;;;;;2.50;0.67;;;20.50;63.10;;;;;;4993482;28;20049;-73
2022/05/28 12:21:09;;;;;;;2.92;0.75;;;20.60;64.10;;;;;;4994884;28;22474;-74
2022/05/28 12:23:42;;;;;;;3.08;0.77;;;20.50;64.50;;;;;;5028785;28;20045;-74
2022/05/28 12:27:13;;;;;;;3.67;0.60;;;20.50;64.70;;;;;;4990682;28;20057;-74
2022/05/28 12:29:33;;;;;;;1.55;0.60;;;20.40;64.10;;;;;;4995903;28;20060;-74
2022/05/28 12:32:10;;;;;;;4.55;0.60;;;20.40;63.80;;;;;;5002714;28;20048;-74
2022/05/28 12:34:39;;;;;;;2.25;0.60;;;20.40;63.70;;;;;;4992381;28;21057;-74
2022/05/28 12:37:17;;;;;;;3.33;0.50;;;20.50;64.20;;;;;;4998309;28;22384;-74
2022/05/28 12:40:09;;;;;;;4.18;0.70;;;20.50;64.00;;;;;;4987526;28;20653;-73
2022/05/28 12:42:36;;;;;;;3.17;0.70;;;20.50;63.50;;;;;;4996531;28;20060;-74
2022/05/28 12:45:34;;;;;;;4.10;0.43;;;20.50;64.20;;;;;;4989104;28;20536;-74
2022/05/28 12:48:42;;;;;;;2.65;0.45;;;20.50;65.10;;;;;;4986548;28;20123;-73
2022/05/28 12:51:36;;;;;;;4.13;0.57;;;20.50;60.30;;;;;;5014154;28;20057;-73
2022/05/28 12:54:04;;;;;;;1.65;0.30;;;20.50;53.30;;;;;;5004664;28;20131;-74
2022/05/28 12:56:34;;;;;;;1.13;0.30;;;20.30;50.50;;;;;;5003527;28;20697;-74
2022/05/28 12:59:21;;;;;;;1.88;0.57;;;20.30;50.90;;;;;;5026701;28;20163;-74
2022/05/28 13:01:59;;;;;;;3.50;0.30;;;20.20;49.60;;;;;;5004729;28;20053;-74
2022/05/28 13:04:39;;;;;;;1.75;0.30;;;20.20;48.80;;;;;;5005302;28;20989;-75
2022/05/28 13:07:22;;;;;;;2.65;0.20;;;20.10;47.90;;;;;;5003711;28;22449;-74
2022/05/28 13:09:59;;;;;;;0.77;0.32;;;20.10;48.60;;;;;;5004715;28;20094;-74
2022/05/28 13:12:37;;;;;;;3.60;0.40;;;20.10;47.00;;;;;;4999581;28;22513;-73
2022/05/28 13:15:26;;;;;;;1.50;0.30;;;20.20;49.30;;;;;;5000678;28;20060;-74
2022/05/28 13:18:02;;;;;;;1.85;0.85;;;20.20;49.00;;;;;;5002202;28;20057;-74
2022/05/28 13:21:06;;;;;;;0.88;0.40;;;20.10;48.50;;;;;;5000334;28;20057;-74
2022/05/28 13:23:56;;;;;;;1.50;0.30;;;20.10;47.90;;;;;;5000677;28;20546;-73